x

Buoy I01 - Eastern Maine Shelf (44034) Wave Buoy

6:04pm - Sat 18th Apr 2015 All times are EDT. -4 hours from GMT.

  • Sig Wave height 2.3ft
  • Peak Period 8s
  • Wind
    9mph, 11mph gusts
  • Sea Temp 39°f
  • Air Temp 40°f
  • Sea Pressure 1011mb
  • Buoy I01 - Eastern Maine Shelf
  • Buoy I01 - Eastern Maine Shelf

More Historic Weather Station data

Upgrade to MSW Pro to gain access to the past 30 days of data for over 8000 Wavebouys and Weather Stations around the globe.

Join Pro

Comparision Forecast

View Surf forecast
   
Sat 04/18 6:04pm 2.5ft 8s 9 11 mph 1011mb 39f 40f
4:04pm 2.5ft 8s 9 11 mph 1011.2mb 40f 41f
1:04pm 2.5ft 8s 7
mph
1013mb 39f 41f
12:04pm 2.5ft 6s  -  mph - 38f -
11:04am 3ft 8s  -  mph - 38f -
10:04am 3.5ft 8s  -  mph - 38f -
8:04am 3ft 8s 11 13 mph 1013mb 38f 40f
7:04am 2.5ft 6s 11 13 mph 1013mb 38f 41f
5:04am 2.5ft 6s 13
mph
1011.4mb 38f 42f
4:04am 2.5ft 6s 11 13 mph 1010.4mb 38f 43f
3:04am 2.5ft 6s 9 11 mph 1009.7mb 38f 42f
2:04am 3.5ft 6s 7 9 mph 1009.3mb 38f 40f
1:04am 3.5ft 6s 4
mph
1008.8mb 38f 41f
Fri 04/17 11:04pm 3.5ft 6s 7 9 mph 1008.1mb 38f 40f
10:04pm 3.5ft 6s 11 13 mph 1007.8mb 38f 40f
9:04pm 3.5ft 6s 9 11 mph 1007.8mb 38f 41f
6:04pm 4.5ft 6s 11 13 mph 1007.6mb 38f 40f
5:04pm 4.5ft 6s 13 16 mph 1007.6mb 38f 40f
3:04pm 5ft 6s 16 18 mph 1008.5mb 38f 40f
2:04pm 4.5ft 6s 16 20 mph 1009.7mb 38f 40f
1:04pm 6ft 6s 16 18 mph 1010.2mb 38f 40f
12:04pm 6ft 6s 18 20 mph 1011.2mb 38f 41f
11:04am 7ft 6s 22 25 mph 1012mb 38f 42f
10:04am 6ft 6s 22 25 mph 1012.3mb 38f 42f
7:04am  -   -  11 16 mph 1015.3mb - 41f
6:04am  -   -  18 22 mph 1015.6mb - 42f
4:04am 6.5ft 6s 20 22 mph 1016.9mb 38f 42f
3:04am 5ft 6s 25 29 mph 1017.4mb 38f 42f
2:04am 4.5ft 5s 20 22 mph 1018.6mb 38f 42f
1:04am 4.5ft 5s 22 27 mph 1019.9mb 38f 42f
Thu 04/16 11:04pm 3.5ft 5s 18 20 mph 1022.1mb 38f 42f
10:04pm 3.5ft 5s 18 20 mph 1023mb 38f 41f
3:04pm  -   -  16 18 mph 1027.5mb 39f 40f
10:04am 3ft 11s 4 7 mph 1030.4mb 38f 40f
9:04am 3ft 8s 11 13 mph 1029.8mb 38f 38f
7:04am 4.5ft 11s 11 13 mph 1029.6mb 38f 39f
6:04am 3.5ft 11s 16 18 mph 1028.7mb 38f 39f
5:04am 2.5ft 8s 9 11 mph 1028mb 38f 39f
1:04am 2.5ft 8s 9 11 mph 1026.3mb 38f 40f
12:04am 3ft 8s 4 7 mph 1025.8mb 38f 40f
Wed 04/15 11:04pm 3ft 8s 7 9 mph 1025mb 38f 42f
9:04pm 3.5ft 8s 7 9 mph 1023.1mb 38f 42f
6:04pm 3ft 8s 13 16 mph 1019.5mb 38f 45f
5:04pm 2.5ft 8s 11 13 mph 1019mb 39f 45f
4:04pm 2.5ft 8s 11 13 mph 1018.5mb 39f 45f
1:04pm 2.5ft 8s 9 11 mph 1017.4mb 38f 44f
11:04am 3ft 8s 4 7 mph 1016.8mb 39f 45f
10:04am 3ft 6s 4
mph
1016.9mb 38f 45f
9:04am 3ft 6s 7 9 mph 1016.4mb 38f 40f
8:04am 3ft 6s 7
mph
1016.2mb 38f 41f
7:04am 3ft 6s 7
mph
1016.3mb 38f 42f
5:04am 2.5ft 6s 4
mph
1015.8mb 38f 39f
3:04am 2.5ft 6s 7
mph
1016.6mb 37f 39f
2:04am 2.5ft 6s 9
mph
1016.8mb 38f 40f
1:04am 2.5ft 6s 7 9 mph 1017.2mb 38f 40f